UAE245 LGMK-LGAV
Flight info
| Callsign | UAE245 |
|---|---|
| Flight time | 0h 18m |
| Altitude | 12000 |
| Route | VARI1D VARIX VARI1Q |
| Aircraft | A333/H-VGD/A |
Departure
| Time | 2026-04-24 10:29 |
|---|---|
| Airport | Mykonos Island National Airport (LGMK) |
Arrival
| Time | 2026-04-24 10:47 |
|---|---|
| Airport | Athens Eleftherios Venizelos International Airport (LGAV) |
| Time | Latitude | Longitude | Altitude | Speed | Heading |
|---|---|---|---|---|---|
| 2026-04-24 10:12 | 37.43506 | 25.34658 | 413 ft | 0 kts | 251° |
| 2026-04-24 10:23 | 37.43498 | 25.34650 | 413 ft | 5 kts | 202° |
| 2026-04-24 10:24 | 37.43470 | 25.34694 | 414 ft | 0 kts | 91° |
| 2026-04-24 10:24 | 37.43453 | 25.34726 | 415 ft | 12 kts | 124° |
| 2026-04-24 10:24 | 37.43445 | 25.34739 | 416 ft | 0 kts | 123° |
| 2026-04-24 10:26 | 37.43424 | 25.34779 | 417 ft | 14 kts | 123° |
| 2026-04-24 10:27 | 37.43309 | 25.34900 | 420 ft | 29 kts | 154° |
| 2026-04-24 10:27 | 37.43059 | 25.35028 | 415 ft | 44 kts | 161° |
| 2026-04-24 10:27 | 37.42782 | 25.35125 | 403 ft | 32 kts | 179° |
| 2026-04-24 10:27 | 37.42752 | 25.35164 | 401 ft | 9 kts | 349° |
| 2026-04-24 10:28 | 37.42800 | 25.35140 | 403 ft | 10 kts | 341° |
| 2026-04-24 10:28 | 37.43079 | 25.35018 | 415 ft | 80 kts | 340° |
| 2026-04-24 10:28 | 37.43838 | 25.34684 | 408 ft | 151 kts | 339° |
| 2026-04-24 10:28 | 37.44921 | 25.34051 | 833 ft | 179 kts | 334° |
| 2026-04-24 10:29 | 37.46087 | 25.33283 | 1376 ft | 213 kts | 336° |
| 2026-04-24 10:29 | 37.47590 | 25.32435 | 1823 ft | 260 kts | 342° |
| 2026-04-24 10:29 | 37.49408 | 25.31664 | 2655 ft | 293 kts | 342° |
| 2026-04-24 10:29 | 37.51149 | 25.30240 | 3918 ft | 315 kts | 308° |
| 2026-04-24 10:30 | 37.51805 | 25.27659 | 5455 ft | 322 kts | 268° |
| 2026-04-24 10:30 | 37.51069 | 25.25249 | 7156 ft | 297 kts | 227° |
| 2026-04-24 10:30 | 37.49565 | 25.23764 | 8736 ft | 270 kts | 212° |
| 2026-04-24 10:30 | 37.48033 | 25.22626 | 9985 ft | 252 kts | 213° |
| 2026-04-24 10:31 | 37.46652 | 25.21375 | 11013 ft | 241 kts | 217° |
| 2026-04-24 10:31 | 37.45401 | 25.20120 | 11923 ft | 225 kts | 220° |
| 2026-04-24 10:31 | 37.44371 | 25.18558 | 12106 ft | 248 kts | 242° |
| 2026-04-24 10:31 | 37.43794 | 25.16379 | 12175 ft | 278 kts | 258° |
| 2026-04-24 10:32 | 37.42832 | 25.14149 | 11894 ft | 318 kts | 221° |
| 2026-04-24 10:32 | 37.41114 | 25.12373 | 11602 ft | 314 kts | 223° |
| 2026-04-24 10:32 | 37.39738 | 25.10312 | 11575 ft | 313 kts | 234° |
| 2026-04-24 10:32 | 37.38496 | 25.07877 | 11741 ft | 349 kts | 237° |
| 2026-04-24 10:33 | 37.37088 | 25.05271 | 12104 ft | 372 kts | 239° |
| 2026-04-24 10:33 | 37.36097 | 25.02282 | 11948 ft | 374 kts | 258° |
| 2026-04-24 10:33 | 37.36011 | 24.99067 | 11991 ft | 366 kts | 279° |
| 2026-04-24 10:33 | 37.36512 | 24.95944 | 12042 ft | 365 kts | 282° |
| 2026-04-24 10:34 | 37.37048 | 24.92832 | 11989 ft | 364 kts | 284° |
| 2026-04-24 10:34 | 37.37701 | 24.89788 | 12009 ft | 363 kts | 285° |
| 2026-04-24 10:34 | 37.38360 | 24.86729 | 12014 ft | 363 kts | 286° |
| 2026-04-24 10:34 | 37.39090 | 24.83713 | 12008 ft | 363 kts | 287° |
| 2026-04-24 10:35 | 37.39834 | 24.80685 | 12032 ft | 363 kts | 288° |
| 2026-04-24 10:35 | 37.40691 | 24.77681 | 12027 ft | 362 kts | 290° |
| 2026-04-24 10:35 | 37.41546 | 24.74724 | 11998 ft | 362 kts | 290° |
| 2026-04-24 10:35 | 37.42403 | 24.71750 | 12002 ft | 362 kts | 290° |
| 2026-04-24 10:36 | 37.43261 | 24.68765 | 12041 ft | 364 kts | 290° |
| 2026-04-24 10:36 | 37.44127 | 24.65756 | 12027 ft | 364 kts | 290° |
| 2026-04-24 10:36 | 37.44979 | 24.62779 | 12015 ft | 363 kts | 290° |
| 2026-04-24 10:36 | 37.45828 | 24.59817 | 12017 ft | 363 kts | 290° |
| 2026-04-24 10:37 | 37.46690 | 24.56818 | 12024 ft | 363 kts | 290° |
| 2026-04-24 10:37 | 37.47550 | 24.53816 | 12022 ft | 363 kts | 290° |
| 2026-04-24 10:37 | 37.48402 | 24.50827 | 12014 ft | 363 kts | 290° |
| 2026-04-24 10:37 | 37.49254 | 24.47845 | 12015 ft | 363 kts | 290° |
| 2026-04-24 10:38 | 37.50107 | 24.44879 | 12018 ft | 364 kts | 290° |
| 2026-04-24 10:38 | 37.50962 | 24.41876 | 12019 ft | 364 kts | 290° |
| 2026-04-24 10:38 | 37.51813 | 24.38882 | 12013 ft | 363 kts | 290° |
| 2026-04-24 10:38 | 37.52666 | 24.35888 | 12022 ft | 364 kts | 291° |
| 2026-04-24 10:39 | 37.53692 | 24.32975 | 12012 ft | 364 kts | 295° |
| 2026-04-24 10:39 | 37.54713 | 24.30065 | 12009 ft | 364 kts | 290° |
| 2026-04-24 10:39 | 37.55380 | 24.27015 | 12019 ft | 365 kts | 285° |
| 2026-04-24 10:39 | 37.56036 | 24.23937 | 12014 ft | 365 kts | 287° |
| 2026-04-24 10:40 | 37.56809 | 24.20876 | 11987 ft | 365 kts | 288° |
| 2026-04-24 10:40 | 37.57552 | 24.17938 | 11531 ft | 346 kts | 289° |
| 2026-04-24 10:40 | 37.58442 | 24.15155 | 10609 ft | 337 kts | 297° |
| 2026-04-24 10:40 | 37.59693 | 24.12735 | 9598 ft | 331 kts | 314° |
| 2026-04-24 10:41 | 37.61277 | 24.10726 | 8569 ft | 328 kts | 314° |
| 2026-04-24 10:41 | 37.62639 | 24.08445 | 7400 ft | 331 kts | 304° |
| 2026-04-24 10:41 | 37.63736 | 24.05889 | 6189 ft | 334 kts | 294° |
| 2026-04-24 10:41 | 37.64590 | 24.03228 | 5059 ft | 332 kts | 294° |
| 2026-04-24 10:42 | 37.65384 | 24.00540 | 3998 ft | 328 kts | 291° |
| 2026-04-24 10:42 | 37.66187 | 23.97886 | 3193 ft | 313 kts | 303° |
| 2026-04-24 10:42 | 37.67545 | 23.95890 | 2396 ft | 296 kts | 328° |
| 2026-04-24 10:42 | 37.69317 | 23.94916 | 2080 ft | 265 kts | 348° |
| 2026-04-24 10:43 | 37.71051 | 23.94758 | 2004 ft | 237 kts | 350° |
| 2026-04-24 10:43 | 37.72471 | 23.93935 | 2067 ft | 216 kts | 327° |
| 2026-04-24 10:43 | 37.73671 | 23.92721 | 2075 ft | 233 kts | 324° |
| 2026-04-24 10:43 | 37.75005 | 23.91369 | 2179 ft | 258 kts | 324° |
| 2026-04-24 10:44 | 37.76434 | 23.89886 | 2337 ft | 274 kts | 321° |
| 2026-04-24 10:44 | 37.77900 | 23.88281 | 2608 ft | 277 kts | 323° |
| 2026-04-24 10:44 | 37.79426 | 23.86769 | 2627 ft | 276 kts | 328° |
| 2026-04-24 10:44 | 37.81060 | 23.85574 | 1982 ft | 274 kts | 336° |
| 2026-04-24 10:45 | 37.82796 | 23.84718 | 1590 ft | 260 kts | 357° |
| 2026-04-24 10:45 | 37.84519 | 23.84940 | 1265 ft | 242 kts | 13° |
| 2026-04-24 10:45 | 37.85897 | 23.85737 | 1208 ft | 203 kts | 46° |
| 2026-04-24 10:45 | 37.86975 | 23.86938 | 897 ft | 212 kts | 40° |
| 2026-04-24 10:46 | 37.88133 | 23.88091 | 794 ft | 208 kts | 39° |
| 2026-04-24 10:46 | 37.89256 | 23.89186 | 671 ft | 198 kts | 34° |
| 2026-04-24 10:46 | 37.90345 | 23.90207 | 544 ft | 192 kts | 37° |
| 2026-04-24 10:46 | 37.91402 | 23.91197 | 416 ft | 184 kts | 33° |
| 2026-04-24 10:47 | 37.92342 | 23.92093 | 323 ft | 155 kts | 34° |
| 2026-04-24 10:47 | 37.93133 | 23.92826 | 263 ft | 123 kts | 31° |
| 2026-04-24 10:47 | 37.93669 | 23.93333 | 267 ft | 69 kts | 33° |
| 2026-04-24 10:47 | 37.93912 | 23.93647 | 273 ft | 28 kts | 62° |
| 2026-04-24 10:48 | 37.93933 | 23.93795 | 275 ft | 13 kts | 137° |
| 2026-04-24 10:48 | 37.93853 | 23.93782 | 275 ft | 12 kts | 212° |
| 2026-04-24 10:48 | 37.93759 | 23.93695 | 272 ft | 23 kts | 214° |
| 2026-04-24 10:48 | 37.93647 | 23.93712 | 270 ft | 6 kts | 159° |
| 2026-04-24 10:49 | 37.93589 | 23.93679 | 268 ft | 14 kts | 217° |
| 2026-04-24 10:49 | 37.93483 | 23.93599 | 266 ft | 18 kts | 186° |
| 2026-04-24 10:49 | 37.93391 | 23.93688 | 265 ft | 16 kts | 132° |
| 2026-04-24 10:49 | 37.93323 | 23.93798 | 266 ft | 14 kts | 138° |
| 2026-04-24 10:50 | 37.93235 | 23.93841 | 265 ft | 13 kts | 169° |
| 2026-04-24 10:50 | 37.93158 | 23.93897 | 266 ft | 12 kts | 128° |
| 2026-04-24 10:50 | 37.93102 | 23.94039 | 272 ft | 21 kts | 71° |
| 2026-04-24 10:50 | 37.93216 | 23.94164 | 276 ft | 21 kts | 37° |
| 2026-04-24 10:51 | 37.93286 | 23.94280 | 282 ft | 13 kts | 98° |
| 2026-04-24 10:51 | 37.93243 | 23.94354 | 285 ft | 8 kts | 160° |
| 2026-04-24 10:51 | 37.93194 | 23.94339 | 283 ft | 6 kts | 209° |
| 2026-04-24 10:51 | 37.93172 | 23.94321 | 282 ft | 0 kts | 216° |
| 2026-04-24 10:52 | 37.93171 | 23.94320 | 282 ft | 0 kts | 216° |